sensor_id;sensor_type;location;lat;lon;timestamp;P1;durP1;ratioP1;P2;durP2;ratioP2
77800;SDS011;66991;50.058;14.454;2023-02-28T00:01:06;13.20;;;5.32;;
77800;SDS011;66991;50.058;14.454;2023-02-28T00:03:31;8.68;;;4.72;;
77800;SDS011;66991;50.058;14.454;2023-02-28T00:05:59;12.95;;;4.88;;
77800;SDS011;66991;50.058;14.454;2023-02-28T00:08:25;11.50;;;5.63;;
77800;SDS011;66991;50.058;14.454;2023-02-28T00:10:51;10.40;;;5.30;;
77800;SDS011;66991;50.058;14.454;2023-02-28T00:13:17;10.15;;;5.22;;
77800;SDS011;66991;50.058;14.454;2023-02-28T00:15:42;11.10;;;5.60;;
77800;SDS011;66991;50.058;14.454;2023-02-28T00:18:07;10.18;;;5.28;;
77800;SDS011;66991;50.058;14.454;2023-02-28T00:20:33;10.30;;;4.80;;
77800;SDS011;66991;50.058;14.454;2023-02-28T00:22:58;11.88;;;4.97;;
77800;SDS011;66991;50.058;14.454;2023-02-28T00:25:24;12.77;;;5.25;;
77800;SDS011;66991;50.058;14.454;2023-02-28T00:27:50;11.15;;;4.78;;
77800;SDS011;66991;50.058;14.454;2023-02-28T00:30:19;10.25;;;4.88;;
77800;SDS011;66991;50.058;14.454;2023-02-28T00:32:46;10.38;;;4.90;;
77800;SDS011;66991;50.058;14.454;2023-02-28T00:35:11;11.50;;;5.22;;
77800;SDS011;66991;50.058;14.454;2023-02-28T00:37:37;10.40;;;5.28;;
77800;SDS011;66991;50.058;14.454;2023-02-28T00:40:03;10.27;;;5.35;;
77800;SDS011;66991;50.058;14.454;2023-02-28T00:42:32;13.18;;;5.43;;
77800;SDS011;66991;50.058;14.454;2023-02-28T00:45:00;12.02;;;5.28;;
77800;SDS011;66991;50.058;14.454;2023-02-28T00:47:26;13.73;;;5.80;;
77800;SDS011;66991;50.058;14.454;2023-02-28T00:49:51;10.20;;;5.43;;
77800;SDS011;66991;50.058;14.454;2023-02-28T00:52:17;10.88;;;5.38;;
77800;SDS011;66991;50.058;14.454;2023-02-28T00:54:42;9.68;;;5.60;;
77800;SDS011;66991;50.058;14.454;2023-02-28T00:57:07;9.50;;;6.03;;
77800;SDS011;66991;50.058;14.454;2023-02-28T00:59:32;11.30;;;5.03;;
77800;SDS011;66991;50.058;14.454;2023-02-28T01:01:58;12.48;;;5.50;;
77800;SDS011;66991;50.058;14.454;2023-02-28T01:04:23;10.23;;;5.88;;
77800;SDS011;66991;50.058;14.454;2023-02-28T01:06:48;10.63;;;5.35;;
77800;SDS011;66991;50.058;14.454;2023-02-28T01:09:14;12.32;;;5.78;;
77800;SDS011;66991;50.058;14.454;2023-02-28T01:11:39;12.98;;;6.32;;
77800;SDS011;66991;50.058;14.454;2023-02-28T01:14:06;9.93;;;5.50;;
77800;SDS011;66991;50.058;14.454;2023-02-28T01:16:32;12.07;;;6.43;;
77800;SDS011;66991;50.058;14.454;2023-02-28T01:18:57;12.23;;;5.85;;
77800;SDS011;66991;50.058;14.454;2023-02-28T01:21:23;10.60;;;5.80;;
77800;SDS011;66991;50.058;14.454;2023-02-28T01:23:48;11.10;;;6.15;;
77800;SDS011;66991;50.058;14.454;2023-02-28T01:26:16;11.43;;;5.78;;
77800;SDS011;66991;50.058;14.454;2023-02-28T01:28:43;10.90;;;5.07;;
77800;SDS011;66991;50.058;14.454;2023-02-28T01:31:09;11.05;;;5.70;;
77800;SDS011;66991;50.058;14.454;2023-02-28T01:33:35;12.50;;;5.60;;
77800;SDS011;66991;50.058;14.454;2023-02-28T01:36:01;14.88;;;6.13;;
77800;SDS011;66991;50.058;14.454;2023-02-28T01:38:28;9.40;;;5.47;;
77800;SDS011;66991;50.058;14.454;2023-02-28T01:40:54;9.77;;;4.95;;
77800;SDS011;66991;50.058;14.454;2023-02-28T01:43:23;11.07;;;5.25;;
77800;SDS011;66991;50.058;14.454;2023-02-28T01:45:56;13.25;;;6.07;;
77800;SDS011;66991;50.058;14.454;2023-02-28T01:48:27;12.60;;;6.00;;
77800;SDS011;66991;50.058;14.454;2023-02-28T01:50:56;10.40;;;5.60;;
77800;SDS011;66991;50.058;14.454;2023-02-28T01:53:26;12.35;;;5.35;;
77800;SDS011;66991;50.058;14.454;2023-02-28T01:55:57;11.10;;;5.80;;
77800;SDS011;66991;50.058;14.454;2023-02-28T01:58:22;11.07;;;5.93;;
77800;SDS011;66991;50.058;14.454;2023-02-28T02:00:48;11.52;;;6.07;;
77800;SDS011;66991;50.058;14.454;2023-02-28T02:03:14;11.30;;;5.82;;
77800;SDS011;66991;50.058;14.454;2023-02-28T02:05:43;12.30;;;6.68;;
77800;SDS011;66991;50.058;14.454;2023-02-28T02:08:12;13.82;;;6.28;;
77800;SDS011;66991;50.058;14.454;2023-02-28T02:10:41;13.43;;;5.57;;
77800;SDS011;66991;50.058;14.454;2023-02-28T02:13:11;11.27;;;4.93;;
77800;SDS011;66991;50.058;14.454;2023-02-28T02:16:04;10.57;;;5.15;;
77800;SDS011;66991;50.058;14.454;2023-02-28T02:27:06;11.57;;;5.32;;
77800;SDS011;66991;50.058;14.454;2023-02-28T02:38:13;11.43;;;5.13;;
77800;SDS011;66991;50.058;14.454;2023-02-28T02:40:53;10.63;;;5.38;;
77800;SDS011;66991;50.058;14.454;2023-02-28T02:43:25;11.30;;;5.10;;
77800;SDS011;66991;50.058;14.454;2023-02-28T02:48:21;9.63;;;4.25;;
77800;SDS011;66991;50.058;14.454;2023-02-28T02:50:55;7.95;;;4.68;;
77800;SDS011;66991;50.058;14.454;2023-02-28T02:53:23;10.40;;;5.50;;
77800;SDS011;66991;50.058;14.454;2023-02-28T02:55:51;11.43;;;5.13;;
77800;SDS011;66991;50.058;14.454;2023-02-28T02:58:20;10.32;;;4.55;;
77800;SDS011;66991;50.058;14.454;2023-02-28T03:00:50;9.50;;;4.70;;
77800;SDS011;66991;50.058;14.454;2023-02-28T03:03:20;9.48;;;5.30;;
77800;SDS011;66991;50.058;14.454;2023-02-28T03:05:54;8.55;;;4.18;;
77800;SDS011;66991;50.058;14.454;2023-02-28T03:08:21;8.73;;;4.57;;
77800;SDS011;66991;50.058;14.454;2023-02-28T03:10:50;9.98;;;4.53;;
77800;SDS011;66991;50.058;14.454;2023-02-28T03:19:02;9.90;;;4.05;;
77800;SDS011;66991;50.058;14.454;2023-02-28T03:21:46;12.43;;;5.05;;
77800;SDS011;66991;50.058;14.454;2023-02-28T03:27:15;12.20;;;5.30;;
77800;SDS011;66991;50.058;14.454;2023-02-28T03:29:58;10.60;;;5.00;;
77800;SDS011;66991;50.058;14.454;2023-02-28T03:32:28;11.68;;;5.00;;
77800;SDS011;66991;50.058;14.454;2023-02-28T03:37:35;10.00;;;4.40;;
77800;SDS011;66991;50.058;14.454;2023-02-28T03:40:05;9.20;;;4.80;;
77800;SDS011;66991;50.058;14.454;2023-02-28T03:42:59;10.82;;;5.03;;
77800;SDS011;66991;50.058;14.454;2023-02-28T03:45:28;10.13;;;4.45;;
77800;SDS011;66991;50.058;14.454;2023-02-28T03:48:32;9.50;;;4.45;;
77800;SDS011;66991;50.058;14.454;2023-02-28T03:50:53;10.38;;;4.55;;
77800;SDS011;66991;50.058;14.454;2023-02-28T03:53:21;10.63;;;4.47;;
77800;SDS011;66991;50.058;14.454;2023-02-28T03:56:01;9.25;;;4.25;;
77800;SDS011;66991;50.058;14.454;2023-02-28T04:03:41;9.18;;;4.22;;
77800;SDS011;66991;50.058;14.454;2023-02-28T04:06:07;8.65;;;4.10;;
77800;SDS011;66991;50.058;14.454;2023-02-28T04:08:38;10.70;;;5.00;;
77800;SDS011;66991;50.058;14.454;2023-02-28T04:11:04;8.73;;;4.65;;
77800;SDS011;66991;50.058;14.454;2023-02-28T04:13:33;11.98;;;5.03;;
77800;SDS011;66991;50.058;14.454;2023-02-28T04:15:58;9.48;;;4.85;;
77800;SDS011;66991;50.058;14.454;2023-02-28T04:18:24;10.07;;;4.32;;
77800;SDS011;66991;50.058;14.454;2023-02-28T04:20:49;9.80;;;4.78;;
77800;SDS011;66991;50.058;14.454;2023-02-28T04:23:14;10.55;;;4.70;;
77800;SDS011;66991;50.058;14.454;2023-02-28T04:25:40;9.43;;;3.97;;
77800;SDS011;66991;50.058;14.454;2023-02-28T04:28:05;14.32;;;4.63;;
77800;SDS011;66991;50.058;14.454;2023-02-28T04:30:31;10.13;;;4.70;;
77800;SDS011;66991;50.058;14.454;2023-02-28T04:32:57;9.45;;;4.75;;
77800;SDS011;66991;50.058;14.454;2023-02-28T04:35:22;11.43;;;5.13;;
77800;SDS011;66991;50.058;14.454;2023-02-28T04:37:48;12.20;;;5.20;;
77800;SDS011;66991;50.058;14.454;2023-02-28T04:40:13;11.52;;;5.05;;
77800;SDS011;66991;50.058;14.454;2023-02-28T04:42:38;12.32;;;5.38;;
77800;SDS011;66991;50.058;14.454;2023-02-28T04:45:04;11.50;;;5.50;;
77800;SDS011;66991;50.058;14.454;2023-02-28T04:47:30;12.27;;;5.05;;
77800;SDS011;66991;50.058;14.454;2023-02-28T04:49:55;12.27;;;4.97;;
77800;SDS011;66991;50.058;14.454;2023-02-28T04:52:20;11.00;;;4.78;;
77800;SDS011;66991;50.058;14.454;2023-02-28T04:54:46;10.55;;;4.75;;
77800;SDS011;66991;50.058;14.454;2023-02-28T04:57:11;11.05;;;4.78;;
77800;SDS011;66991;50.058;14.454;2023-02-28T04:59:36;12.43;;;5.18;;
77800;SDS011;66991;50.058;14.454;2023-02-28T05:02:02;11.38;;;4.97;;
77800;SDS011;66991;50.058;14.454;2023-02-28T05:04:31;13.07;;;4.85;;
77800;SDS011;66991;50.058;14.454;2023-02-28T05:07:00;10.43;;;4.90;;
77800;SDS011;66991;50.058;14.454;2023-02-28T05:09:26;11.68;;;4.70;;
77800;SDS011;66991;50.058;14.454;2023-02-28T05:11:52;9.75;;;5.05;;
77800;SDS011;66991;50.058;14.454;2023-02-28T05:14:17;13.15;;;5.22;;
77800;SDS011;66991;50.058;14.454;2023-02-28T05:16:42;9.57;;;4.70;;
77800;SDS011;66991;50.058;14.454;2023-02-28T05:19:08;12.30;;;4.72;;
77800;SDS011;66991;50.058;14.454;2023-02-28T05:21:34;12.18;;;4.70;;
77800;SDS011;66991;50.058;14.454;2023-02-28T05:24:02;11.77;;;4.93;;
77800;SDS011;66991;50.058;14.454;2023-02-28T05:26:29;11.65;;;5.30;;
77800;SDS011;66991;50.058;14.454;2023-02-28T05:28:54;12.00;;;4.75;;
77800;SDS011;66991;50.058;14.454;2023-02-28T05:31:20;11.63;;;5.65;;
77800;SDS011;66991;50.058;14.454;2023-02-28T05:33:46;12.60;;;6.03;;
77800;SDS011;66991;50.058;14.454;2023-02-28T05:36:11;11.63;;;5.43;;
77800;SDS011;66991;50.058;14.454;2023-02-28T05:38:37;12.32;;;5.53;;
77800;SDS011;66991;50.058;14.454;2023-02-28T05:41:09;10.77;;;4.90;;
77800;SDS011;66991;50.058;14.454;2023-02-28T05:43:36;12.27;;;5.00;;
77800;SDS011;66991;50.058;14.454;2023-02-28T05:46:02;12.95;;;5.40;;
77800;SDS011;66991;50.058;14.454;2023-02-28T05:48:29;10.35;;;5.07;;
77800;SDS011;66991;50.058;14.454;2023-02-28T05:50:54;12.32;;;5.30;;
77800;SDS011;66991;50.058;14.454;2023-02-28T05:53:20;9.93;;;5.20;;
77800;SDS011;66991;50.058;14.454;2023-02-28T05:55:45;10.38;;;4.90;;
77800;SDS011;66991;50.058;14.454;2023-02-28T05:58:11;10.68;;;5.00;;
77800;SDS011;66991;50.058;14.454;2023-02-28T06:00:36;9.30;;;5.22;;
77800;SDS011;66991;50.058;14.454;2023-02-28T06:03:01;12.57;;;5.00;;
77800;SDS011;66991;50.058;14.454;2023-02-28T06:05:27;10.25;;;5.43;;
77800;SDS011;66991;50.058;14.454;2023-02-28T06:07:52;15.18;;;5.68;;
77800;SDS011;66991;50.058;14.454;2023-02-28T06:10:18;12.15;;;5.18;;
77800;SDS011;66991;50.058;14.454;2023-02-28T06:12:44;13.30;;;5.57;;
77800;SDS011;66991;50.058;14.454;2023-02-28T06:15:11;11.90;;;5.78;;
77800;SDS011;66991;50.058;14.454;2023-02-28T06:17:37;12.18;;;5.97;;
77800;SDS011;66991;50.058;14.454;2023-02-28T06:20:03;11.88;;;5.50;;
77800;SDS011;66991;50.058;14.454;2023-02-28T06:22:29;10.68;;;5.68;;
77800;SDS011;66991;50.058;14.454;2023-02-28T06:24:56;12.77;;;5.72;;
77800;SDS011;66991;50.058;14.454;2023-02-28T06:27:22;13.13;;;5.60;;
77800;SDS011;66991;50.058;14.454;2023-02-28T06:29:48;15.73;;;5.28;;
77800;SDS011;66991;50.058;14.454;2023-02-28T06:32:14;12.73;;;6.55;;
77800;SDS011;66991;50.058;14.454;2023-02-28T06:34:39;13.60;;;7.13;;
77800;SDS011;66991;50.058;14.454;2023-02-28T06:37:04;12.73;;;6.63;;
77800;SDS011;66991;50.058;14.454;2023-02-28T06:39:30;15.07;;;6.63;;
77800;SDS011;66991;50.058;14.454;2023-02-28T06:41:55;12.27;;;5.68;;
77800;SDS011;66991;50.058;14.454;2023-02-28T06:44:21;12.82;;;6.43;;
77800;SDS011;66991;50.058;14.454;2023-02-28T06:46:46;13.35;;;6.00;;
77800;SDS011;66991;50.058;14.454;2023-02-28T06:49:12;12.32;;;6.95;;
77800;SDS011;66991;50.058;14.454;2023-02-28T06:51:39;14.93;;;6.45;;
77800;SDS011;66991;50.058;14.454;2023-02-28T06:54:07;11.52;;;5.68;;
77800;SDS011;66991;50.058;14.454;2023-02-28T06:56:34;13.43;;;6.15;;
77800;SDS011;66991;50.058;14.454;2023-02-28T06:59:00;13.85;;;6.57;;
77800;SDS011;66991;50.058;14.454;2023-02-28T07:01:25;13.93;;;6.18;;
77800;SDS011;66991;50.058;14.454;2023-02-28T07:03:52;12.50;;;5.45;;
77800;SDS011;66991;50.058;14.454;2023-02-28T07:06:19;16.88;;;6.50;;
77800;SDS011;66991;50.058;14.454;2023-02-28T07:08:45;16.00;;;6.78;;
77800;SDS011;66991;50.058;14.454;2023-02-28T07:11:10;15.05;;;5.90;;
77800;SDS011;66991;50.058;14.454;2023-02-28T07:13:36;14.75;;;7.65;;
77800;SDS011;66991;50.058;14.454;2023-02-28T07:16:03;15.57;;;6.80;;
77800;SDS011;66991;50.058;14.454;2023-02-28T07:18:30;13.80;;;6.63;;
77800;SDS011;66991;50.058;14.454;2023-02-28T07:20:56;17.40;;;7.45;;
77800;SDS011;66991;50.058;14.454;2023-02-28T07:23:22;15.68;;;6.05;;
77800;SDS011;66991;50.058;14.454;2023-02-28T07:25:48;12.93;;;6.32;;
77800;SDS011;66991;50.058;14.454;2023-02-28T07:28:14;11.23;;;5.63;;
77800;SDS011;66991;50.058;14.454;2023-02-28T07:30:40;13.52;;;6.15;;
77800;SDS011;66991;50.058;14.454;2023-02-28T07:33:06;11.80;;;5.50;;
77800;SDS011;66991;50.058;14.454;2023-02-28T07:35:31;12.50;;;6.13;;
77800;SDS011;66991;50.058;14.454;2023-02-28T07:37:57;11.82;;;6.03;;
77800;SDS011;66991;50.058;14.454;2023-02-28T07:40:23;15.77;;;6.68;;
77800;SDS011;66991;50.058;14.454;2023-02-28T07:42:48;13.63;;;6.22;;
77800;SDS011;66991;50.058;14.454;2023-02-28T07:45:14;14.57;;;6.25;;
77800;SDS011;66991;50.058;14.454;2023-02-28T07:47:39;12.57;;;6.50;;
77800;SDS011;66991;50.058;14.454;2023-02-28T07:50:07;14.27;;;5.70;;
77800;SDS011;66991;50.058;14.454;2023-02-28T07:52:33;13.90;;;6.05;;
77800;SDS011;66991;50.058;14.454;2023-02-28T07:54:59;10.18;;;5.30;;
77800;SDS011;66991;50.058;14.454;2023-02-28T07:57:24;11.25;;;5.70;;
77800;SDS011;66991;50.058;14.454;2023-02-28T07:59:50;10.05;;;5.80;;
77800;SDS011;66991;50.058;14.454;2023-02-28T08:02:16;10.60;;;6.25;;
77800;SDS011;66991;50.058;14.454;2023-02-28T08:04:42;12.77;;;5.93;;
77800;SDS011;66991;50.058;14.454;2023-02-28T08:07:08;11.65;;;6.20;;
77800;SDS011;66991;50.058;14.454;2023-02-28T08:09:34;12.65;;;5.65;;
77800;SDS011;66991;50.058;14.454;2023-02-28T08:11:59;14.00;;;5.55;;
77800;SDS011;66991;50.058;14.454;2023-02-28T08:14:25;12.75;;;5.75;;
77800;SDS011;66991;50.058;14.454;2023-02-28T08:16:50;10.75;;;5.68;;
77800;SDS011;66991;50.058;14.454;2023-02-28T08:19:15;12.43;;;6.20;;
77800;SDS011;66991;50.058;14.454;2023-02-28T08:21:41;14.90;;;6.38;;
77800;SDS011;66991;50.058;14.454;2023-02-28T08:24:06;16.23;;;7.22;;
77800;SDS011;66991;50.058;14.454;2023-02-28T08:26:32;17.13;;;7.85;;
77800;SDS011;66991;50.058;14.454;2023-02-28T08:28:57;13.35;;;6.63;;
77800;SDS011;66991;50.058;14.454;2023-02-28T08:31:22;16.25;;;6.18;;
77800;SDS011;66991;50.058;14.454;2023-02-28T08:33:48;13.20;;;5.90;;
77800;SDS011;66991;50.058;14.454;2023-02-28T08:36:19;15.07;;;6.50;;
77800;SDS011;66991;50.058;14.454;2023-02-28T08:38:44;10.90;;;5.88;;
77800;SDS011;66991;50.058;14.454;2023-02-28T08:41:11;12.90;;;6.28;;
77800;SDS011;66991;50.058;14.454;2023-02-28T08:43:37;10.75;;;6.25;;
77800;SDS011;66991;50.058;14.454;2023-02-28T08:46:03;14.77;;;6.55;;
77800;SDS011;66991;50.058;14.454;2023-02-28T08:48:30;12.98;;;6.70;;
77800;SDS011;66991;50.058;14.454;2023-02-28T08:50:57;12.52;;;6.43;;
77800;SDS011;66991;50.058;14.454;2023-02-28T08:53:23;14.75;;;5.85;;
77800;SDS011;66991;50.058;14.454;2023-02-28T08:55:58;12.02;;;6.13;;
77800;SDS011;66991;50.058;14.454;2023-02-28T08:58:25;12.73;;;5.70;;
77800;SDS011;66991;50.058;14.454;2023-02-28T09:00:51;9.40;;;5.53;;
77800;SDS011;66991;50.058;14.454;2023-02-28T09:03:17;11.60;;;6.43;;
77800;SDS011;66991;50.058;14.454;2023-02-28T09:05:51;10.90;;;5.68;;
77800;SDS011;66991;50.058;14.454;2023-02-28T09:08:17;12.30;;;5.63;;
77800;SDS011;66991;50.058;14.454;2023-02-28T09:10:42;10.02;;;5.65;;
77800;SDS011;66991;50.058;14.454;2023-02-28T09:13:08;14.05;;;6.07;;
77800;SDS011;66991;50.058;14.454;2023-02-28T09:15:33;14.63;;;6.88;;
77800;SDS011;66991;50.058;14.454;2023-02-28T09:17:58;10.95;;;5.45;;
77800;SDS011;66991;50.058;14.454;2023-02-28T09:20:24;13.10;;;5.97;;
77800;SDS011;66991;50.058;14.454;2023-02-28T09:22:49;10.07;;;6.10;;
77800;SDS011;66991;50.058;14.454;2023-02-28T09:25:14;11.45;;;6.10;;
77800;SDS011;66991;50.058;14.454;2023-02-28T09:27:40;11.30;;;5.70;;
77800;SDS011;66991;50.058;14.454;2023-02-28T09:30:05;12.02;;;5.90;;
77800;SDS011;66991;50.058;14.454;2023-02-28T09:32:31;10.70;;;6.20;;
77800;SDS011;66991;50.058;14.454;2023-02-28T09:34:57;9.45;;;5.63;;
77800;SDS011;66991;50.058;14.454;2023-02-28T09:37:22;14.02;;;6.10;;
77800;SDS011;66991;50.058;14.454;2023-02-28T09:39:48;13.93;;;5.68;;
77800;SDS011;66991;50.058;14.454;2023-02-28T09:42:18;10.68;;;5.30;;
77800;SDS011;66991;50.058;14.454;2023-02-28T09:44:47;10.95;;;5.28;;
77800;SDS011;66991;50.058;14.454;2023-02-28T09:49:52;9.98;;;5.65;;
77800;SDS011;66991;50.058;14.454;2023-02-28T09:52:21;10.43;;;5.55;;
77800;SDS011;66991;50.058;14.454;2023-02-28T09:54:53;10.60;;;5.78;;
77800;SDS011;66991;50.058;14.454;2023-02-28T10:00:10;13.55;;;6.13;;
77800;SDS011;66991;50.058;14.454;2023-02-28T10:02:57;11.63;;;6.93;;
77800;SDS011;66991;50.058;14.454;2023-02-28T10:11:14;13.82;;;6.75;;
77800;SDS011;66991;50.058;14.454;2023-02-28T10:16:29;12.25;;;6.22;;
77800;SDS011;66991;50.058;14.454;2023-02-28T10:19:01;13.10;;;5.88;;
77800;SDS011;66991;50.058;14.454;2023-02-28T10:24:08;14.65;;;5.97;;
77800;SDS011;66991;50.058;14.454;2023-02-28T10:26:38;13.27;;;6.60;;
77800;SDS011;66991;50.058;14.454;2023-02-28T10:29:07;12.35;;;6.32;;
77800;SDS011;66991;50.058;14.454;2023-02-28T10:31:33;14.00;;;6.65;;
77800;SDS011;66991;50.058;14.454;2023-02-28T10:33:58;12.32;;;6.55;;
77800;SDS011;66991;50.058;14.454;2023-02-28T10:36:24;13.43;;;7.00;;
77800;SDS011;66991;50.058;14.454;2023-02-28T10:38:49;13.07;;;6.72;;
77800;SDS011;66991;50.058;14.454;2023-02-28T10:41:36;11.15;;;6.65;;
77800;SDS011;66991;50.058;14.454;2023-02-28T10:44:15;12.30;;;7.13;;
77800;SDS011;66991;50.058;14.454;2023-02-28T10:46:44;16.88;;;7.25;;
77800;SDS011;66991;50.058;14.454;2023-02-28T10:49:28;12.43;;;7.32;;
77800;SDS011;66991;50.058;14.454;2023-02-28T10:51:55;15.82;;;7.07;;
77800;SDS011;66991;50.058;14.454;2023-02-28T10:54:32;13.90;;;6.80;;
77800;SDS011;66991;50.058;14.454;2023-02-28T10:59:53;11.43;;;6.50;;
77800;SDS011;66991;50.058;14.454;2023-02-28T11:02:51;12.38;;;6.07;;
77800;SDS011;66991;50.058;14.454;2023-02-28T11:05:23;15.70;;;7.10;;
77800;SDS011;66991;50.058;14.454;2023-02-28T11:08:02;11.18;;;6.80;;
77800;SDS011;66991;50.058;14.454;2023-02-28T11:10:36;13.57;;;7.13;;
77800;SDS011;66991;50.058;14.454;2023-02-28T11:13:02;12.25;;;5.75;;
77800;SDS011;66991;50.058;14.454;2023-02-28T11:15:37;12.85;;;6.68;;
77800;SDS011;66991;50.058;14.454;2023-02-28T11:20:37;12.02;;;6.45;;
77800;SDS011;66991;50.058;14.454;2023-02-28T11:23:03;12.48;;;6.70;;
77800;SDS011;66991;50.058;14.454;2023-02-28T11:25:30;14.05;;;7.43;;
77800;SDS011;66991;50.058;14.454;2023-02-28T11:27:58;11.05;;;6.22;;
77800;SDS011;66991;50.058;14.454;2023-02-28T11:30:38;14.63;;;7.78;;
77800;SDS011;66991;50.058;14.454;2023-02-28T11:33:19;14.20;;;7.30;;
77800;SDS011;66991;50.058;14.454;2023-02-28T11:35:47;13.23;;;7.53;;
77800;SDS011;66991;50.058;14.454;2023-02-28T11:38:13;12.50;;;6.38;;
77800;SDS011;66991;50.058;14.454;2023-02-28T11:40:42;14.18;;;7.70;;
77800;SDS011;66991;50.058;14.454;2023-02-28T11:49:06;11.30;;;6.43;;
77800;SDS011;66991;50.058;14.454;2023-02-28T12:00:36;13.13;;;6.38;;
77800;SDS011;66991;50.058;14.454;2023-02-28T12:06:09;11.93;;;6.75;;
77800;SDS011;66991;50.058;14.454;2023-02-28T12:08:47;12.82;;;6.75;;
77800;SDS011;66991;50.058;14.454;2023-02-28T12:11:24;14.27;;;6.88;;
77800;SDS011;66991;50.058;14.454;2023-02-28T12:16:52;12.98;;;6.80;;
77800;SDS011;66991;50.058;14.454;2023-02-28T12:19:32;13.77;;;7.32;;
77800;SDS011;66991;50.058;14.454;2023-02-28T12:27:31;14.20;;;6.75;;
77800;SDS011;66991;50.058;14.454;2023-02-28T12:30:03;14.15;;;7.25;;
77800;SDS011;66991;50.058;14.454;2023-02-28T12:32:33;13.23;;;7.72;;
77800;SDS011;66991;50.058;14.454;2023-02-28T12:35:02;13.27;;;6.82;;
77800;SDS011;66991;50.058;14.454;2023-02-28T12:37:40;11.07;;;5.95;;
77800;SDS011;66991;50.058;14.454;2023-02-28T12:40:18;12.75;;;6.97;;
77800;SDS011;66991;50.058;14.454;2023-02-28T12:42:52;12.93;;;7.60;;
77800;SDS011;66991;50.058;14.454;2023-02-28T12:45:23;12.35;;;7.28;;
77800;SDS011;66991;50.058;14.454;2023-02-28T12:47:57;13.05;;;7.35;;
77800;SDS011;66991;50.058;14.454;2023-02-28T12:50:29;15.88;;;8.02;;
77800;SDS011;66991;50.058;14.454;2023-02-28T12:53:02;12.73;;;6.88;;
77800;SDS011;66991;50.058;14.454;2023-02-28T12:55:35;15.25;;;7.50;;
77800;SDS011;66991;50.058;14.454;2023-02-28T12:58:20;11.40;;;6.97;;
77800;SDS011;66991;50.058;14.454;2023-02-28T13:09:26;13.80;;;7.03;;
77800;SDS011;66991;50.058;14.454;2023-02-28T13:11:54;14.60;;;7.15;;
77800;SDS011;66991;50.058;14.454;2023-02-28T13:14:22;16.33;;;7.78;;
77800;SDS011;66991;50.058;14.454;2023-02-28T13:17:00;10.98;;;6.57;;
77800;SDS011;66991;50.058;14.454;2023-02-28T13:19:27;13.88;;;7.00;;
77800;SDS011;66991;50.058;14.454;2023-02-28T13:21:54;13.40;;;7.25;;
77800;SDS011;66991;50.058;14.454;2023-02-28T13:27:12;12.38;;;6.60;;
77800;SDS011;66991;50.058;14.454;2023-02-28T13:29:58;13.82;;;6.38;;
77800;SDS011;66991;50.058;14.454;2023-02-28T13:32:33;16.58;;;7.63;;
77800;SDS011;66991;50.058;14.454;2023-02-28T13:37:31;12.85;;;7.10;;
77800;SDS011;66991;50.058;14.454;2023-02-28T13:42:51;14.85;;;7.18;;
77800;SDS011;66991;50.058;14.454;2023-02-28T13:45:21;14.88;;;6.60;;
77800;SDS011;66991;50.058;14.454;2023-02-28T13:47:52;13.07;;;7.00;;
77800;SDS011;66991;50.058;14.454;2023-02-28T14:04:00;12.10;;;7.13;;
77800;SDS011;66991;50.058;14.454;2023-02-28T14:06:30;14.95;;;7.10;;
77800;SDS011;66991;50.058;14.454;2023-02-28T14:11:43;13.52;;;7.38;;
77800;SDS011;66991;50.058;14.454;2023-02-28T14:14:09;13.77;;;7.40;;
77800;SDS011;66991;50.058;14.454;2023-02-28T14:17:04;12.38;;;7.00;;
77800;SDS011;66991;50.058;14.454;2023-02-28T14:19:33;11.05;;;6.90;;
77800;SDS011;66991;50.058;14.454;2023-02-28T14:24:59;15.52;;;7.05;;
77800;SDS011;66991;50.058;14.454;2023-02-28T14:27:36;13.82;;;7.75;;
77800;SDS011;66991;50.058;14.454;2023-02-28T14:32:41;13.98;;;7.93;;
77800;SDS011;66991;50.058;14.454;2023-02-28T14:38:25;13.00;;;7.80;;
77800;SDS011;66991;50.058;14.454;2023-02-28T14:40:55;12.05;;;7.30;;
77800;SDS011;66991;50.058;14.454;2023-02-28T14:43:23;12.98;;;6.45;;
77800;SDS011;66991;50.058;14.454;2023-02-28T14:45:51;14.40;;;7.68;;
77800;SDS011;66991;50.058;14.454;2023-02-28T14:48:18;11.75;;;6.90;;
77800;SDS011;66991;50.058;14.454;2023-02-28T14:51:05;14.38;;;7.40;;
77800;SDS011;66991;50.058;14.454;2023-02-28T14:53:30;13.48;;;6.63;;
77800;SDS011;66991;50.058;14.454;2023-02-28T14:56:00;12.05;;;7.40;;
77800;SDS011;66991;50.058;14.454;2023-02-28T14:58:30;12.60;;;7.00;;
77800;SDS011;66991;50.058;14.454;2023-02-28T15:00:57;14.27;;;6.95;;
77800;SDS011;66991;50.058;14.454;2023-02-28T15:03:29;14.10;;;7.65;;
77800;SDS011;66991;50.058;14.454;2023-02-28T15:06:00;14.07;;;6.68;;
77800;SDS011;66991;50.058;14.454;2023-02-28T15:08:39;12.60;;;7.32;;
77800;SDS011;66991;50.058;14.454;2023-02-28T15:11:05;12.68;;;7.40;;
77800;SDS011;66991;50.058;14.454;2023-02-28T15:13:40;15.32;;;8.02;;
77800;SDS011;66991;50.058;14.454;2023-02-28T15:16:11;14.52;;;7.55;;
77800;SDS011;66991;50.058;14.454;2023-02-28T15:18:49;13.48;;;7.13;;
77800;SDS011;66991;50.058;14.454;2023-02-28T15:21:23;13.10;;;6.63;;
77800;SDS011;66991;50.058;14.454;2023-02-28T15:24:01;13.90;;;7.80;;
77800;SDS011;66991;50.058;14.454;2023-02-28T15:26:32;13.30;;;7.85;;
77800;SDS011;66991;50.058;14.454;2023-02-28T15:29:00;16.13;;;8.40;;
77800;SDS011;66991;50.058;14.454;2023-02-28T15:31:33;12.50;;;7.38;;
77800;SDS011;66991;50.058;14.454;2023-02-28T15:34:04;14.80;;;7.55;;
77800;SDS011;66991;50.058;14.454;2023-02-28T15:36:32;13.77;;;7.88;;
77800;SDS011;66991;50.058;14.454;2023-02-28T15:39:01;17.58;;;8.15;;
77800;SDS011;66991;50.058;14.454;2023-02-28T15:41:27;13.98;;;7.60;;
77800;SDS011;66991;50.058;14.454;2023-02-28T15:44:13;14.50;;;7.60;;
77800;SDS011;66991;50.058;14.454;2023-02-28T15:49:26;14.05;;;7.63;;
77800;SDS011;66991;50.058;14.454;2023-02-28T15:51:52;18.17;;;8.77;;
77800;SDS011;66991;50.058;14.454;2023-02-28T15:54:20;15.23;;;7.50;;
77800;SDS011;66991;50.058;14.454;2023-02-28T15:56:52;17.30;;;8.48;;
77800;SDS011;66991;50.058;14.454;2023-02-28T15:59:21;13.88;;;7.68;;
77800;SDS011;66991;50.058;14.454;2023-02-28T16:02:01;18.85;;;8.38;;
77800;SDS011;66991;50.058;14.454;2023-02-28T16:04:33;14.77;;;8.07;;
77800;SDS011;66991;50.058;14.454;2023-02-28T16:09:23;17.93;;;8.93;;
77800;SDS011;66991;50.058;14.454;2023-02-28T16:11:50;17.77;;;8.65;;
77800;SDS011;66991;50.058;14.454;2023-02-28T16:14:20;16.38;;;8.32;;
77800;SDS011;66991;50.058;14.454;2023-02-28T16:16:51;17.35;;;9.15;;
77800;SDS011;66991;50.058;14.454;2023-02-28T16:19:18;15.75;;;8.85;;
77800;SDS011;66991;50.058;14.454;2023-02-28T16:21:44;18.00;;;8.77;;
77800;SDS011;66991;50.058;14.454;2023-02-28T16:24:09;15.45;;;8.27;;
77800;SDS011;66991;50.058;14.454;2023-02-28T16:26:35;12.95;;;7.28;;
77800;SDS011;66991;50.058;14.454;2023-02-28T16:29:02;14.27;;;7.85;;
77800;SDS011;66991;50.058;14.454;2023-02-28T16:31:28;14.43;;;7.97;;
77800;SDS011;66991;50.058;14.454;2023-02-28T16:33:54;13.52;;;7.82;;
77800;SDS011;66991;50.058;14.454;2023-02-28T16:36:21;14.85;;;8.30;;
77800;SDS011;66991;50.058;14.454;2023-02-28T16:38:49;15.98;;;7.32;;
77800;SDS011;66991;50.058;14.454;2023-02-28T16:41:17;14.38;;;7.63;;
77800;SDS011;66991;50.058;14.454;2023-02-28T16:43:44;12.57;;;7.60;;